Decoded Metar for PANC (ANCHORAGE in AK, USA) (IATA:ANC) | Meteo·Mobile Aviation Weather
aviador You're here:

PANC Decoded Metar

ANCHORAGE in AK, USA
Report Time2019-04-23 06:53:00
UTC Time2019-04-23 07:54:39
Flight Rules vfr VFR
Wind160° at 08 kt
W.Decomp.*RWY 15: 7.9 kt HW 1.3 kt LCW
RWY 07: 2.6 kt HW 7.6 kt RCW
Visibility9656 m
Phenomena:Light Snow
Clouds:Few 012 Hf
Broken 040 Hf
Expected CloudBase > 1,200 ft AGL from Temp-Dew spread
Ceiling4,000 ft
Temp01°C (ISA -14)
Dew Point-2°C (81% RH)
AAT-4.1°C
QNH1001 hPa
Density Alt-1,066 ft
Elevation125 ft
Report Wrong Elevation
Raw Report
PANC 230653Z 16008KT 6SM -SN FEW012 BKN040 01/M02 A2956=

Extra information for PANC:More info

Metar Taf Metar & Taf Last 4 Metars F.Rules Stats Wind Profile Meteogram Temp Stats Airport Information Weather charts Add Link Nearby VenuesMetar ALERT Operation Metar Decoded Social comments

AIRNAV info for PANC
Anchorage Webcam N